• Join FlightAware (Why Join?)
  • Login
  • US Flag 
10:22AM EDT


 

Airport Tracker/Info


-or-


 

Live Flight TrackerFlight Track Log ✈ EJA904 ✈ 10-Nov-2013 ✈ KSJC - KTEB

Flight Track Log - Related Links

Times and Time Zones

All times are in EST time to prevent confusion due to time zone crossing. See the EJA904 flight status page for this flight to view local times or setup timezone preferences in your user account.

Time Position Orientation Groundspeed Altitude Reporting Facility
EST Latitude Longitude Course Direction KTS MPH feet Rate Location/Type
03:02PM 37.4000 -121.9667 76° East 201 231 2,400  Level Northern Cal TRACON
03:03PM 37.4333 -121.9500 22° Northeast 227 261 5,000 1,680 Climbing Northern Cal TRACON
03:06PM 37.3450 -121.8153 129° Southeast 208 239 8,400 1,740 Climbing Oakland Center
03:07PM 37.3175 -121.8811 242° Southwest 216 249 11,100 1,980 Climbing Oakland Center
03:08PM 37.6654 -120.9019 76° East  Level Estimated
03:08PM 37.3756 -121.9447 319° Northwest 281 323 12,500  Level Oakland Center
03:09PM 37.4786 -121.9575 354° North 375 432 13,500 1,560 Climbing Oakland Center
03:10PM 37.5878 -121.9694 355° North 393 452 15,700 1,980 Climbing Oakland Center
03:11PM 37.7000 -121.9797 356° North 405 466 17,600 1,680 Climbing Oakland Center
03:12PM 37.8100 -121.9408 16° North 423 487 19,200 1,800 Climbing Oakland Center
03:13PM 37.8872 -121.7917 57° Northeast 430 495 21,300 1,800 Climbing Oakland Center
03:14PM 37.9458 -121.6542 62° Northeast 439 505 23,000 1,680 Climbing Oakland Center
03:15PM 38.0022 -121.5183 62° Northeast 440 506 24,800 1,560 Climbing Oakland Center
03:16PM 38.0617 -121.3775 62° Northeast 448 516 26,300 1,380 Climbing Oakland Center
03:17PM 38.1217 -121.2342 62° Northeast 458 527 27,700 1,200 Climbing Oakland Center
03:18PM 38.1822 -121.0900 62° Northeast 465 535 28,900 1,080 Climbing Oakland Center
03:19PM 38.2203 -120.9283 73° East 484 557 30,000 1,260 Climbing Oakland Center
03:20PM 38.2475 -120.7289 80° East 482 555 31,600 1,800 Climbing Oakland Center
03:21PM 38.2717 -120.5614 80° East 484 557 33,700 1,560 Climbing Oakland Center
03:22PM 38.2942 -120.3964 80° East 478 550 34,900 1,440 Climbing Oakland Center
03:23PM 38.3164 -120.2278 80° East 484 557 36,700 1,020 Climbing Oakland Center
03:24PM 38.3408 -120.0575 80° East 490 564 37,000 780 Climbing Oakland Center
03:25PM 38.3658 -119.8772 80° East 513 590 38,300 1,020 Climbing Oakland Center
03:26PM 38.3886 -119.6983 81° East 514 592 39,100 780 Climbing Oakland Center
03:27PM 38.4169 -119.4908 80° East 518 596 40,000 720 Climbing Oakland Center
03:28PM 38.4400 -119.3075 81° East 525 604 40,600 480 Climbing Oakland Center
03:29PM 38.4636 -119.1250 81° East 524 603 41,000 180 Climbing Oakland Center
03:30PM 38.4869 -118.9394 81° East 530 610 41,000  Level Oakland Center
03:31PM 38.5100 -118.7533 81° East 533 613 41,000  Level Oakland Center
03:32PM 38.5372 -118.5289 81° East 536 617 41,000  Level Oakland Center
03:33PM 38.5597 -118.3428 81° East 534 615 41,000  Level Oakland Center
03:34PM 38.5814 -118.1567 81° East 533 613 41,000  Level Oakland Center
03:36PM 38.6033 -117.9797 81° East 532 612 41,000  Level Oakland Center
03:37PM 38.6244 -117.7919 82° East 532 612 41,000  Level Oakland Center
03:38PM 38.6450 -117.6028 82° East 533 613 41,000  Level Salt Lake Center
03:39PM 38.6656 -117.4153 82° East 531 611 41,000  Level Salt Lake Center
03:40PM 38.6958 -117.1897 80° East 532 612 41,000  Level Salt Lake Center
03:41PM 38.7286 -117.0042 77° East 532 612 41,000  Level Salt Lake Center
03:42PM 38.7597 -116.8189 78° East 530 610 41,000  Level Salt Lake Center
03:43PM 38.7911 -116.6331 78° East 532 612 41,000  Level Salt Lake Center
03:44PM 38.8217 -116.4481 78° East 530 610 41,000  Level Salt Lake Center
03:45PM 38.8517 -116.2611 78° East 532 612 41,000  Level Salt Lake Center
03:46PM 38.8817 -116.0767 78° East 530 610 41,000  Level Salt Lake Center
03:47PM 38.9111 -115.8917 78° East 530 610 41,000  Level Salt Lake Center
03:48PM 38.9406 -115.7069 78° East 528 608 41,000  Level Salt Lake Center
03:49PM 38.9753 -115.4850 79° East 528 608 41,000  Level Salt Lake Center
03:50PM 39.0050 -115.3000 78° East 528 608 41,000  Level Salt Lake Center
03:51PM 39.0333 -115.1139 79° East 529 609 41,000  Level Salt Lake Center
03:52PM 39.0608 -114.9297 79° East 527 606 41,000  Level Salt Lake Center
03:53PM 39.0878 -114.7475 79° East 522 601 41,000  Level Salt Lake Center
03:54PM 39.1158 -114.5625 79° East 525 604 41,000  Level Salt Lake Center
03:55PM 39.1425 -114.3794 79° East 522 601 41,000  Level Salt Lake Center
03:56PM 39.1683 -114.1942 80° East 524 603 41,000  Level Salt Lake Center
03:57PM 39.2008 -113.9731 79° East 524 603 41,000  Level Salt Lake Center
03:58PM 39.2261 -113.7892 80° East 522 601 41,000  Level Salt Lake Center
03:59PM 39.2517 -113.6044 80° East 522 601 41,000  Level Salt Lake Center
04:00PM 39.2772 -113.4214 80° East 520 598 41,000  Level Salt Lake Center
04:01PM 39.3025 -113.2372 80° East 520 598 41,000  Level Salt Lake Center
04:02PM 39.3325 -113.0558 78° East 517 595 41,000  Level Salt Lake Center
04:03PM 39.3633 -112.8731 78° East 520 598 41,000  Level Salt Lake Center
04:04PM 39.3986 -112.6531 78° East 521 600 41,000  Level Salt Lake Center
04:05PM 39.4256 -112.4936 78° East 519 597 41,000  Level Salt Lake Center
04:06PM 39.4547 -112.3111 78° East 519 597 41,000  Level Salt Lake Center
04:07PM 39.4889 -112.0928 78° East 519 597 41,000  Level Salt Lake Center
04:08PM 39.5175 -111.9092 79° East 522 601 41,000  Level Salt Lake Center
04:09PM 39.5458 -111.7269 79° East 521 600 41,000  Level Salt Lake Center
04:10PM 39.5736 -111.5433 79° East 522 601 41,000  Level Salt Lake Center
04:12PM 39.6017 -111.3594 79° East 523 602 41,000  Level Salt Lake Center
04:13PM 39.6317 -111.1667 79° East 518 596 41,000  Level Salt Lake Center
04:14PM 39.6617 -110.9614 79° East 518 596 41,000  Level Salt Lake Center
04:15PM 39.6886 -110.7831 79° East 524 603 41,000  Level Salt Lake Center
04:16PM 39.7181 -110.5764 79° East 522 601 41,000  Level Salt Lake Center
04:17PM 39.7431 -110.3983 80° East 523 602 41,000  Level Salt Lake Center
04:18PM 39.7686 -110.2194 79° East 525 604 41,000  Level Salt Lake Center
04:19PM 39.7967 -110.0114 80° East 525 604 41,000  Level Salt Lake Center
04:20PM 39.8219 -109.8325 80° East 525 604 41,000  Level Salt Lake Center
04:21PM 39.8506 -109.6228 80° East 526 605 41,000  Level Salt Lake Center
04:22PM 39.8750 -109.4422 80° East 528 608 41,000  Level Salt Lake Center
04:23PM 39.9031 -109.2314 80° East 528 608 41,000  Level Salt Lake Center
04:24PM 39.9261 -109.0478 81° East 527 606 41,000  Level Denver Center
04:25PM 39.9544 -108.8353 80° East 529 609 41,000  Level Denver Center
04:26PM 39.9781 -108.6525 80° East 529 609 41,000  Level Denver Center
04:27PM 39.9997 -108.4694 81° East 529 609 41,000  Level Denver Center
04:28PM 40.0258 -108.2578 81° East 527 606 41,000  Level Denver Center
04:29PM 40.0483 -108.0769 81° East 527 606 41,000  Level Denver Center
04:30PM 40.0800 -107.8667 79° East 528 608 41,000  Level Denver Center
04:31PM 40.1200 -107.6922 73° East 526 605 41,000  Level Denver Center
04:32PM 40.1667 -107.4878 73° East 526 605 41,000  Level Denver Center
04:33PM 40.2081 -107.3108 73° East 531 611 41,000  Level Denver Center
04:34PM 40.2475 -107.1353 74° East 528 608 41,000  Level Denver Center
04:35PM 40.2931 -106.9283 74° East 529 609 41,000  Level Denver Center
04:36PM 40.3356 -106.7439 73° East 530 610 41,000  Level Denver Center
04:37PM 40.3769 -106.5561 74° East 531 611 41,000  Level Denver Center
04:38PM 40.4183 -106.3656 74° East 530 610 41,000  Level Denver Center
04:39PM 40.4636 -106.1578 74° East 530 610 41,000  Level Denver Center
04:40PM 40.4981 -105.9914 75° East 529 609 41,000  Level Denver Center
04:41PM 40.5467 -105.7678 74° East 530 610 41,000  Level Denver Center
04:42PM 40.5853 -105.5831 75° East 526 605 41,000  Level Denver Center
04:44PM 40.6239 -105.3964 75° East 527 606 41,000  Level Denver Center
04:45PM 40.6622 -105.2114 75° East 524 603 41,000  Level Denver Center
04:46PM 40.7003 -105.0247 75° East 527 606 41,000  Level Denver Center
04:47PM 40.7389 -104.8378 75° East 528 608 41,000  Level Denver Center
04:48PM 40.7764 -104.6525 75° East 525 604 41,000  Level Denver Center
04:49PM 40.8131 -104.4658 75° East 525 604 41,000  Level Denver Center
04:50PM 40.8586 -104.2367 75° East 537 618 41,000  Level Denver Center
04:51PM 40.8947 -104.0456 76° East 537 618 41,000  Level Denver Center
04:52PM 40.9328 -103.8542 75° East 538 619 41,000  Level Denver Center
04:53PM 40.9694 -103.6628 76° East 537 618 41,000  Level Denver Center
04:54PM 41.0047 -103.4725 76° East 539 620 41,000  Level Denver Center
04:55PM 41.0456 -103.2567 76° East 541 623 41,000  Level Denver Center
04:56PM 41.0797 -103.0731 76° East 539 620 41,000  Level Denver Center
04:57PM 41.1083 -102.8417 81° East 541 623 41,000  Level Denver Center
04:58PM 41.1231 -102.6506 84° East 543 625 41,000  Level Denver Center
04:59PM 41.1372 -102.4578 84° East 549 632 41,000  Level Denver Center
05:00PM 41.1531 -102.2356 85° East 543 625 41,000  Level Denver Center
05:01PM 41.1697 -102.0419 83° East 549 632 41,000  Level Denver Center
05:02PM 41.1853 -101.8178 85° East 546 628 41,000  Level Denver Center
05:03PM 41.1992 -101.6244 84° East 549 632 41,000  Level Denver Center
05:04PM 41.2133 -101.3989 85° East 548 631 41,000  Level Denver Center
05:05PM 41.2269 -101.2042 85° East 550 633 41,000  Level Denver Center
05:06PM 41.2389 -101.0100 85° East 549 632 41,000  Level Denver Center
05:07PM 41.2539 -100.7817 85° East 550 633 41,000  Level Denver Center
05:08PM 41.2658 -100.5861 85° East 550 633 41,000  Level Denver Center
05:09PM 41.2794 -100.3586 85° East 549 632 41,000  Level Denver Center
05:10PM 41.2897 -100.1619 86° East 552 635 41,000  Level Denver Center
05:11PM 41.3008 -99.9661 86° East 554 638 41,000  Level Denver Center
05:12PM 41.3136 -99.7397 86° East 551 634 41,000  Level Denver Center
05:13PM 41.3231 -99.5428 86° East 554 638 41,000  Level Denver Center
05:14PM 41.3328 -99.3319 86° East 555 639 41,000  Level Denver Center
05:16PM 41.3433 -99.1253 86° East 556 640 41,000  Level Denver Center
05:17PM 41.3531 -98.9167 86° East 556 640 41,000  Level Denver Center
05:18PM 41.3617 -98.7053 87° East 558 642 41,000  Level Denver Center
05:19PM 41.3703 -98.4956 87° East 559 643 41,000  Level Denver Center
05:20PM 41.4061 -98.1664 82° East 560 644 41,000  Level Minneapolis Center
05:21PM 41.4422 -97.9578 77° East 559 643 41,000  Level Minneapolis Center
05:22PM 41.4758 -97.7550 77° East 560 644 41,000  Level Minneapolis Center
05:23PM 41.5089 -97.5519 78° East 561 646 41,000  Level Minneapolis Center
05:24PM 41.5414 -97.3481 78° East 562 647 41,000  Level Minneapolis Center
05:25PM 41.5736 -97.1436 78° East 562 647 41,000  Level Minneapolis Center
05:26PM 41.6064 -96.9375 78° East 566 651 41,000  Level Minneapolis Center
05:27PM 41.6389 -96.7319 78° East 564 649 41,000  Level Minneapolis Center
05:28PM 41.6706 -96.5233 78° East 569 655 41,000  Level Minneapolis Center
05:29PM 41.7086 -96.2728 78° East 566 651 41,000  Level Minneapolis Center
05:30PM 41.7397 -96.0628 79° East 569 655 41,000  Level Minneapolis Center
05:31PM 41.7700 -95.8525 79° East 569 655 41,000  Level Minneapolis Center
05:32PM 41.8011 -95.6425 79° East 570 656 41,000  Level Minneapolis Center
05:33PM 41.8311 -95.4303 79° East 575 662 41,000  Level Minneapolis Center
05:34PM 41.8589 -95.2194 80° East 573 659 41,000  Level Minneapolis Center
05:35PM 41.8897 -95.0097 79° East 572 658 41,000  Level Minneapolis Center
05:37PM 41.9186 -94.7989 79° East 574 661 41,000  Level Minneapolis Center
05:38PM 41.9467 -94.5875 80° East 574 661 41,000  Level Minneapolis Center
05:39PM 41.9753 -94.3783 80° East 572 658 41,000  Level Minneapolis Center
05:40PM 42.0094 -94.1258 80° East 572 658 41,000  Level Minneapolis Center
05:41PM 42.0364 -93.9125 80° East 576 663 41,000  Level Minneapolis Center
05:42PM 42.0603 -93.7225 80° East 577 664 41,000  Level Minneapolis Center
05:43PM 42.0872 -93.5122 80° East 577 664 41,000  Level Minneapolis Center
05:44PM 42.1078 -93.2553 84° East 580 667 41,000  Level Minneapolis Center
05:45PM 42.1164 -93.0386 87° East 583 671 41,000  Level Minneapolis Center
05:46PM 42.1250 -92.8222 87° East 585 673 41,000  Level Minneapolis Center
05:46PM 42.1300 -92.6914 87° East 584 672 41,000  Level Chicago Center
05:47PM 42.1378 -92.4744 87° East 585 673 41,000  Level Chicago Center
05:48PM 42.1469 -92.2581 87° East 586 674 41,000  Level Chicago Center
05:49PM 42.1539 -92.0397 87° East 591 680 41,000  Level Chicago Center
05:50PM 42.1631 -91.7794 87° East 588 677 41,000  Level Chicago Center
05:51PM 42.1694 -91.5625 88° East 590 679 41,000  Level Chicago Center
05:53PM 42.1764 -91.3439 87° East 592 681 41,000  Level Chicago Center
05:54PM 42.1817 -91.1278 88° East 590 679 41,000  Level Chicago Center
05:55PM 42.1878 -90.8669 88° East 587 676 41,000  Level Chicago Center
05:56PM 42.1928 -90.6492 88° East 589 678 41,000  Level Chicago Center
05:57PM 42.1978 -90.4292 88° East 594 684 41,000  Level Chicago Center
05:58PM 42.2017 -90.2089 89° East 594 684 41,000  Level Chicago Center
05:59PM 42.2061 -89.9439 89° East 597 687 41,000  Level Chicago Center
06:00PM 42.2086 -89.7503 89° East 595 685 41,000  Level Chicago Center
06:01PM 42.2117 -89.4847 89° East 594 684 41,000  Level Chicago Center
06:02PM 42.2156 -89.2639 89° East 593 682 41,000  Level Chicago Center
06:03PM 42.2175 -89.0389 89° East 600 690 41,000  Level Chicago Center
06:04PM 42.2194 -88.7906 89° East 600 690 41,000  Level Chicago Center
06:05PM 42.2211 -88.5664 89° East 600 690 41,000  Level Chicago Center
06:06PM 42.2264 -88.3403 88° East 601 692 41,000  Level Chicago Center
06:07PM 42.2342 -88.1139 87° East 602 693 41,000  Level Chicago Center
06:08PM 42.2428 -87.8872 87° East 603 694 41,000  Level Chicago Center
06:09PM 42.2489 -87.6594 88° East 607 699 41,000  Level Chicago Center
06:10PM 42.2569 -87.3886 88° East 603 694 41,000  Level Chicago Center
06:11PM 42.2633 -87.1594 88° East 610 702 41,000  Level Chicago Center
06:12PM 42.2681 -86.9314 88° East 609 701 41,000  Level Chicago Center
06:13PM 42.2731 -86.7028 88° East 612 704 41,000  Level Chicago Center
06:14PM 42.2803 -86.4461 88° East 612 704 41,000  Level Chicago Center
06:15PM 42.2842 -86.2158 89° East 611 703 41,000  Level Chicago Center
06:16PM 42.2872 -86.0047 89° East 612 704 41,000  Level Chicago Center
06:17PM 42.2906 -85.7297 89° East 615 708 41,000  Level Chicago Center
06:18PM 42.2942 -85.5006 89° East 617 710 41,000  Level Chicago Center
06:19PM 42.2961 -85.2694 89° East 619 712 41,000  Level Chicago Center
06:20PM 42.2992 -85.0386 89° East 620 713 41,000  Level Chicago Center
06:22PM 42.3006 -84.8081 89° East 618 711 41,000  Level Chicago Center
06:23PM 42.3022 -84.5267 89° East 618 711 41,000  Level Chicago Center
06:24PM 42.3022 -84.3003 90° East 619 712 41,000  Level Chicago Center
06:25PM 42.3028 -84.0686 90° East 620 713 41,000  Level Chicago Center
06:26PM 42.3022 -83.8317 90° East 620 713 41,000  Level Chicago Center
06:27PM 42.2983 -83.5053 91° East 615 708 41,000  Level Cleveland Center
06:28PM 42.2972 -83.2708 90° East 618 711 41,000  Level Cleveland Center
06:29PM 42.2931 -83.0117 91° East 610 702 41,000  Level Cleveland Center
06:30PM 42.2906 -82.7831 91° East 610 702 41,000  Level Cleveland Center
06:31PM 42.2883 -82.5533 91° East 612 704 41,000  Level Cleveland Center
06:32PM 42.2831 -82.3272 92° East 607 699 41,000  Level Cleveland Center
06:33PM 42.2797 -82.0797 91° East 603 694 41,000  Level Cleveland Center
06:34PM 42.2756 -81.8506 91° East 603 694 41,000  Level Cleveland Center
06:35PM 42.2706 -81.6219 92° East 601 692 41,000  Level Cleveland Center
06:36PM 42.2650 -81.3925 92° East 602 693 41,000  Level Cleveland Center
06:37PM 42.2586 -81.1628 92° East 605 696 41,000  Level Cleveland Center
06:38PM 42.2528 -80.9353 92° East 601 692 41,000  Level Cleveland Center
06:39PM 42.2456 -80.6700 92° East 600 690 41,000  Level Cleveland Center
06:41PM 42.2358 -80.4408 93° East 605 696 41,000  Level Cleveland Center
06:42PM 42.2097 -80.2117 99° East 613 705 41,000  Level Cleveland Center
06:43PM 42.1764 -79.9703 100° East 613 705 41,000  Level Cleveland Center
06:44PM 42.1431 -79.7386 101° East 610 702 41,000  Level Cleveland Center
06:45PM 42.1133 -79.5136 100° East 615 708 41,000  Level Cleveland Center
06:46PM 42.0806 -79.2892 101° East 612 704 41,000  Level Cleveland Center
06:47PM 42.0486 -79.0667 101° East 609 701 41,000 -180 Level Cleveland Center
06:48PM 42.0244 -78.8425 98° East 604 695 40,700 -1,020 Descending Cleveland Center
06:49PM 42.0219 -78.6175 91° East 601 692 38,900 -2,040 Descending Cleveland Center
06:50PM 42.0081 -78.3533 94° East 594 684 36,600 -1,920 Descending Cleveland Center
06:51PM 41.9567 -78.1397 108° East 606 697 35,000 -780 Descending Cleveland Center
06:52PM 41.8858 -77.9172 113° Southeast 632 727 35,000  Level Cleveland Center
06:52PM 41.8419 -77.7731 112° Southeast 626 720 35,000  Level New York Center
06:53PM 41.7894 -77.5672 109° East 643 740 35,000  Level New York Center
06:54PM 41.7292 -77.3414 110° East 643 740 35,000 -660 Level New York Center
06:55PM 41.6631 -77.0989 110° East 643 740 33,800 -5,460 Descending New York Center
06:56PM 41.5997 -76.8767 111° Southeast 643 740 24,000 -4,860 Descending New York Center
06:57PM 41.5403 -76.6522 109° East 641 738 24,000 1,320 Level New York Center
06:59PM 41.4839 -76.4394 109° East 629 724 26,700 300 Climbing New York Center
06:59PM 41.4281 -76.2550 112° Southeast 614 707 24,700 -2,280 Descending New York Center
07:00PM 41.3728 -76.0486 110° East 602 693 22,300 -2,400 Descending New York Center
07:01PM 41.3208 -75.8594 110° East 578 665 20,000 -4,680 Descending New York Center
07:02PM 41.2567 -75.6503 112° Southeast 553 636 13,000 -2,460 Descending New York Center
07:03PM 41.2106 -75.5036 113° Southeast 505 581 15,100  Climbing New York Center
07:04PM 41.1583 -75.3483 114° Southeast 472 543 13,000 -1,740 Descending New York Center
07:06PM 41.1133 -75.2158 114° Southeast 421 484 11,700 -1,860 Descending New York Center
07:06PM 41.0817 -75.1175 113° Southeast 350 403 9,300 -2,460 Descending New York Center
07:07PM 41.0439 -75.0106 115° Southeast 319 367 6,900 -1,680 Descending New York Center
07:08PM 41.0128 -74.8903 109° East 308 354 6,000 -540 Descending New York Center
07:09PM 41.0139 -74.7914 89° East 302 348 5,900 -480 Descending New York Center
07:10PM 41.0158 -74.6706 89° East 297 342 5,100 -840 Descending New York Center
07:11PM 41.0192 -74.5717 87° East 291 335 4,300 -960 Descending New York Center
07:12PM 41.0206 -74.4592 89° East 285 328 3,200 -660 Descending New York Center
07:13PM 41.0217 -74.3575 89° East 285 328 3,100 -60 Descending New York Center
07:14PM 41.0247 -74.2586 88° East 273 314 3,100 -540 Level New York Center
07:15PM 41.0253 -74.1678 90° East 251 289 2,100 -600 Descending New York Center
07:16PM 41.0256 -74.0825 90° East 245 282 2,000 -60 Descending New York Center
07:17PM 40.9722 -74.0553 159° South 184 212 2,000 -240 Level New York Center
07:18PM 40.9283 -74.0558 181° South 178 205 1,600 -480 Descending New York Center
07:19PM 40.8914 -74.0403 162° South 149 171 1,100 -660 Descending New York Center
07:21PM 40.8619 -74.0472 190° South 126 145 300 -840 Descending New York Center
07:22PM 40.8500 -74.0500 143° Southeast  Level FlightAware Approximate
07:29PM 40.8501 -74.0608 143° Southeast  Level Estimated
07:30PM 40.8501 -74.0608 143° Southeast  Level Estimated